sensor_id;sensor_type;location;lat;lon;timestamp;temperature;humidity
51914;DHT22;37940;53.002;6.930;2022-07-12T00:01:55;16.00;99.90
51914;DHT22;37940;53.002;6.930;2022-07-12T00:04:21;16.00;99.90
51914;DHT22;37940;53.002;6.930;2022-07-12T00:06:47;16.00;99.90
51914;DHT22;37940;53.002;6.930;2022-07-12T00:09:13;15.90;99.90
51914;DHT22;37940;53.002;6.930;2022-07-12T00:11:38;15.90;99.90
51914;DHT22;37940;53.002;6.930;2022-07-12T00:14:05;15.90;99.90
51914;DHT22;37940;53.002;6.930;2022-07-12T00:16:31;15.90;99.90
51914;DHT22;37940;53.002;6.930;2022-07-12T00:18:57;15.90;99.90
51914;DHT22;37940;53.002;6.930;2022-07-12T00:21:22;15.80;99.90
51914;DHT22;37940;53.002;6.930;2022-07-12T00:26:49;15.80;99.90
51914;DHT22;37940;53.002;6.930;2022-07-12T00:29:15;15.80;99.90
51914;DHT22;37940;53.002;6.930;2022-07-12T00:31:40;15.80;99.90
51914;DHT22;37940;53.002;6.930;2022-07-12T00:34:06;15.80;99.90
51914;DHT22;37940;53.002;6.930;2022-07-12T00:36:32;15.80;99.90
51914;DHT22;37940;53.002;6.930;2022-07-12T00:38:57;15.80;99.90
51914;DHT22;37940;53.002;6.930;2022-07-12T00:41:23;15.80;99.90
51914;DHT22;37940;53.002;6.930;2022-07-12T00:43:49;15.80;99.90
51914;DHT22;37940;53.002;6.930;2022-07-12T00:46:18;15.80;99.90
51914;DHT22;37940;53.002;6.930;2022-07-12T00:48:46;15.80;99.90
51914;DHT22;37940;53.002;6.930;2022-07-12T00:51:12;15.80;99.90
51914;DHT22;37940;53.002;6.930;2022-07-12T00:53:37;15.70;99.90
51914;DHT22;37940;53.002;6.930;2022-07-12T00:56:03;15.70;99.90
51914;DHT22;37940;53.002;6.930;2022-07-12T00:58:30;15.80;99.90
51914;DHT22;37940;53.002;6.930;2022-07-12T01:00:58;15.80;99.90
51914;DHT22;37940;53.002;6.930;2022-07-12T01:03:24;15.70;99.90
51914;DHT22;37940;53.002;6.930;2022-07-12T01:05:50;15.70;99.90
51914;DHT22;37940;53.002;6.930;2022-07-12T01:08:17;15.60;99.90
51914;DHT22;37940;53.002;6.930;2022-07-12T01:10:43;15.60;99.90
51914;DHT22;37940;53.002;6.930;2022-07-12T01:13:10;15.50;99.90
51914;DHT22;37940;53.002;6.930;2022-07-12T01:15:36;15.50;99.90
51914;DHT22;37940;53.002;6.930;2022-07-12T01:18:03;15.40;99.90
51914;DHT22;37940;53.002;6.930;2022-07-12T01:20:31;15.40;99.90
51914;DHT22;37940;53.002;6.930;2022-07-12T01:22:57;15.30;99.90
51914;DHT22;37940;53.002;6.930;2022-07-12T01:25:24;15.20;99.90
51914;DHT22;37940;53.002;6.930;2022-07-12T01:27:50;15.10;99.90
51914;DHT22;37940;53.002;6.930;2022-07-12T01:30:16;15.10;99.90
51914;DHT22;37940;53.002;6.930;2022-07-12T01:32:42;15.00;99.90
51914;DHT22;37940;53.002;6.930;2022-07-12T01:35:08;14.90;99.90
51914;DHT22;37940;53.002;6.930;2022-07-12T01:37:36;14.80;99.90
51914;DHT22;37940;53.002;6.930;2022-07-12T01:40:06;14.80;99.90
51914;DHT22;37940;53.002;6.930;2022-07-12T01:42:32;14.70;99.90
51914;DHT22;37940;53.002;6.930;2022-07-12T01:44:58;14.60;99.90
51914;DHT22;37940;53.002;6.930;2022-07-12T01:47:26;14.50;99.90
51914;DHT22;37940;53.002;6.930;2022-07-12T01:49:52;14.50;99.90
51914;DHT22;37940;53.002;6.930;2022-07-12T01:52:19;14.40;99.90
51914;DHT22;37940;53.002;6.930;2022-07-12T01:54:45;14.40;99.90
51914;DHT22;37940;53.002;6.930;2022-07-12T01:57:12;14.30;99.90
51914;DHT22;37940;53.002;6.930;2022-07-12T01:59:38;14.30;99.90
51914;DHT22;37940;53.002;6.930;2022-07-12T02:02:04;14.20;99.90
51914;DHT22;37940;53.002;6.930;2022-07-12T02:04:30;14.20;99.90
51914;DHT22;37940;53.002;6.930;2022-07-12T02:06:56;14.10;99.90
51914;DHT22;37940;53.002;6.930;2022-07-12T02:09:22;14.10;99.90
51914;DHT22;37940;53.002;6.930;2022-07-12T02:11:49;14.00;99.90
51914;DHT22;37940;53.002;6.930;2022-07-12T02:14:16;13.90;99.90
51914;DHT22;37940;53.002;6.930;2022-07-12T02:16:42;13.90;99.90
51914;DHT22;37940;53.002;6.930;2022-07-12T02:19:09;13.80;99.90
51914;DHT22;37940;53.002;6.930;2022-07-12T02:21:36;13.80;99.90
51914;DHT22;37940;53.002;6.930;2022-07-12T02:24:02;13.80;99.90
51914;DHT22;37940;53.002;6.930;2022-07-12T02:26:28;13.70;99.90
51914;DHT22;37940;53.002;6.930;2022-07-12T02:28:53;13.70;99.90
51914;DHT22;37940;53.002;6.930;2022-07-12T02:31:19;13.60;99.90
51914;DHT22;37940;53.002;6.930;2022-07-12T02:33:45;13.60;99.90
51914;DHT22;37940;53.002;6.930;2022-07-12T02:36:10;13.50;99.90
51914;DHT22;37940;53.002;6.930;2022-07-12T02:38:36;13.40;99.90
51914;DHT22;37940;53.002;6.930;2022-07-12T02:41:02;13.40;99.90
51914;DHT22;37940;53.002;6.930;2022-07-12T02:43:29;13.30;99.90
51914;DHT22;37940;53.002;6.930;2022-07-12T02:46:09;13.30;99.90
51914;DHT22;37940;53.002;6.930;2022-07-12T02:48:36;13.30;99.90
51914;DHT22;37940;53.002;6.930;2022-07-12T02:51:03;13.20;99.90
51914;DHT22;37940;53.002;6.930;2022-07-12T02:53:29;13.20;99.90
51914;DHT22;37940;53.002;6.930;2022-07-12T02:55:55;13.10;99.90
51914;DHT22;37940;53.002;6.930;2022-07-12T02:58:21;13.10;99.90
51914;DHT22;37940;53.002;6.930;2022-07-12T03:00:47;13.00;99.90
51914;DHT22;37940;53.002;6.930;2022-07-12T03:03:13;13.00;99.90
51914;DHT22;37940;53.002;6.930;2022-07-12T03:05:40;13.00;99.90
51914;DHT22;37940;53.002;6.930;2022-07-12T03:08:06;13.00;99.90
51914;DHT22;37940;53.002;6.930;2022-07-12T03:10:33;12.90;99.90
51914;DHT22;37940;53.002;6.930;2022-07-12T03:12:59;12.90;99.90
51914;DHT22;37940;53.002;6.930;2022-07-12T03:15:25;12.90;99.90
51914;DHT22;37940;53.002;6.930;2022-07-12T03:17:51;12.80;99.90
51914;DHT22;37940;53.002;6.930;2022-07-12T03:20:16;12.80;99.90
51914;DHT22;37940;53.002;6.930;2022-07-12T03:22:42;12.80;99.90
51914;DHT22;37940;53.002;6.930;2022-07-12T03:25:09;12.80;99.90
51914;DHT22;37940;53.002;6.930;2022-07-12T03:27:35;12.90;99.90
51914;DHT22;37940;53.002;6.930;2022-07-12T03:30:01;12.80;99.90
51914;DHT22;37940;53.002;6.930;2022-07-12T03:32:27;12.70;99.90
51914;DHT22;37940;53.002;6.930;2022-07-12T03:34:53;12.70;99.90
51914;DHT22;37940;53.002;6.930;2022-07-12T03:37:18;12.70;99.90
51914;DHT22;37940;53.002;6.930;2022-07-12T03:39:44;12.70;99.90
51914;DHT22;37940;53.002;6.930;2022-07-12T03:42:10;12.60;99.90
51914;DHT22;37940;53.002;6.930;2022-07-12T03:44:38;12.70;99.90
51914;DHT22;37940;53.002;6.930;2022-07-12T03:47:04;12.60;99.90
51914;DHT22;37940;53.002;6.930;2022-07-12T03:49:30;12.60;99.90
51914;DHT22;37940;53.002;6.930;2022-07-12T03:51:55;12.60;99.90
51914;DHT22;37940;53.002;6.930;2022-07-12T03:54:21;12.60;99.90
51914;DHT22;37940;53.002;6.930;2022-07-12T03:56:47;12.60;99.90
51914;DHT22;37940;53.002;6.930;2022-07-12T03:59:31;12.60;99.90
51914;DHT22;37940;53.002;6.930;2022-07-12T04:01:57;12.60;99.90
51914;DHT22;37940;53.002;6.930;2022-07-12T04:04:23;12.60;99.90
51914;DHT22;37940;53.002;6.930;2022-07-12T04:06:49;12.60;99.90
51914;DHT22;37940;53.002;6.930;2022-07-12T04:09:15;12.60;99.90
51914;DHT22;37940;53.002;6.930;2022-07-12T04:11:40;12.70;99.90
51914;DHT22;37940;53.002;6.930;2022-07-12T04:14:06;12.80;99.90
51914;DHT22;37940;53.002;6.930;2022-07-12T04:16:32;12.70;99.90
51914;DHT22;37940;53.002;6.930;2022-07-12T04:18:58;12.70;99.90
51914;DHT22;37940;53.002;6.930;2022-07-12T04:21:24;12.80;99.90
51914;DHT22;37940;53.002;6.930;2022-07-12T04:23:49;12.90;99.90
51914;DHT22;37940;53.002;6.930;2022-07-12T04:26:15;12.90;99.90
51914;DHT22;37940;53.002;6.930;2022-07-12T04:28:41;13.00;99.90
51914;DHT22;37940;53.002;6.930;2022-07-12T04:31:07;13.10;99.90
51914;DHT22;37940;53.002;6.930;2022-07-12T04:33:33;13.20;99.90
51914;DHT22;37940;53.002;6.930;2022-07-12T04:35:59;13.10;99.90
51914;DHT22;37940;53.002;6.930;2022-07-12T04:38:25;13.20;99.90
51914;DHT22;37940;53.002;6.930;2022-07-12T04:40:50;13.20;99.90
51914;DHT22;37940;53.002;6.930;2022-07-12T04:43:16;13.30;99.90
51914;DHT22;37940;53.002;6.930;2022-07-12T04:45:43;13.30;99.90
51914;DHT22;37940;53.002;6.930;2022-07-12T04:48:12;13.40;99.90
51914;DHT22;37940;53.002;6.930;2022-07-12T04:50:38;13.50;99.90
51914;DHT22;37940;53.002;6.930;2022-07-12T04:53:04;13.60;99.90
51914;DHT22;37940;53.002;6.930;2022-07-12T04:55:30;13.60;99.90
51914;DHT22;37940;53.002;6.930;2022-07-12T04:57:56;13.70;99.90
51914;DHT22;37940;53.002;6.930;2022-07-12T05:00:22;13.80;99.90
51914;DHT22;37940;53.002;6.930;2022-07-12T05:02:48;13.80;99.90
51914;DHT22;37940;53.002;6.930;2022-07-12T05:05:14;13.90;99.90
51914;DHT22;37940;53.002;6.930;2022-07-12T05:07:40;14.00;99.90
51914;DHT22;37940;53.002;6.930;2022-07-12T05:10:06;14.10;99.90
51914;DHT22;37940;53.002;6.930;2022-07-12T05:12:34;14.30;99.90
51914;DHT22;37940;53.002;6.930;2022-07-12T05:15:01;14.40;99.90
51914;DHT22;37940;53.002;6.930;2022-07-12T05:17:26;14.70;99.90
51914;DHT22;37940;53.002;6.930;2022-07-12T05:19:52;15.30;99.90
51914;DHT22;37940;53.002;6.930;2022-07-12T05:22:18;16.60;99.90
51914;DHT22;37940;53.002;6.930;2022-07-12T05:24:44;18.20;99.90
51914;DHT22;37940;53.002;6.930;2022-07-12T05:27:09;19.60;99.90
51914;DHT22;37940;53.002;6.930;2022-07-12T05:29:35;20.80;99.90
51914;DHT22;37940;53.002;6.930;2022-07-12T05:32:01;21.20;99.90
51914;DHT22;37940;53.002;6.930;2022-07-12T05:34:27;20.80;99.90
51914;DHT22;37940;53.002;6.930;2022-07-12T05:36:53;20.20;99.90
51914;DHT22;37940;53.002;6.930;2022-07-12T05:39:19;19.60;99.90
51914;DHT22;37940;53.002;6.930;2022-07-12T05:41:45;19.10;99.90
51914;DHT22;37940;53.002;6.930;2022-07-12T05:44:12;18.70;99.90
51914;DHT22;37940;53.002;6.930;2022-07-12T05:46:38;18.30;99.90
51914;DHT22;37940;53.002;6.930;2022-07-12T05:49:06;18.10;99.90
51914;DHT22;37940;53.002;6.930;2022-07-12T05:51:32;18.00;99.90
51914;DHT22;37940;53.002;6.930;2022-07-12T05:54:16;17.90;99.90
51914;DHT22;37940;53.002;6.930;2022-07-12T05:56:43;17.80;99.90
51914;DHT22;37940;53.002;6.930;2022-07-12T05:59:09;17.80;99.90
51914;DHT22;37940;53.002;6.930;2022-07-12T06:01:35;17.90;99.90
51914;DHT22;37940;53.002;6.930;2022-07-12T06:04:01;18.00;99.90
51914;DHT22;37940;53.002;6.930;2022-07-12T06:06:27;18.10;99.90
51914;DHT22;37940;53.002;6.930;2022-07-12T06:08:52;18.30;99.90
51914;DHT22;37940;53.002;6.930;2022-07-12T06:11:18;18.40;99.90
51914;DHT22;37940;53.002;6.930;2022-07-12T06:13:44;18.50;99.90
51914;DHT22;37940;53.002;6.930;2022-07-12T06:16:09;18.60;99.90
51914;DHT22;37940;53.002;6.930;2022-07-12T06:18:37;18.60;99.90
51914;DHT22;37940;53.002;6.930;2022-07-12T06:21:03;18.60;99.90
51914;DHT22;37940;53.002;6.930;2022-07-12T06:23:29;18.70;99.90
51914;DHT22;37940;53.002;6.930;2022-07-12T06:25:55;18.80;99.90
51914;DHT22;37940;53.002;6.930;2022-07-12T06:28:21;18.80;99.90
51914;DHT22;37940;53.002;6.930;2022-07-12T06:30:47;18.90;99.90
51914;DHT22;37940;53.002;6.930;2022-07-12T06:33:12;19.00;99.90
51914;DHT22;37940;53.002;6.930;2022-07-12T06:35:38;19.00;99.90
51914;DHT22;37940;53.002;6.930;2022-07-12T06:38:04;19.10;99.90
51914;DHT22;37940;53.002;6.930;2022-07-12T06:40:30;19.20;99.90
51914;DHT22;37940;53.002;6.930;2022-07-12T06:42:56;19.40;99.90
51914;DHT22;37940;53.002;6.930;2022-07-12T06:45:22;19.50;99.90
51914;DHT22;37940;53.002;6.930;2022-07-12T06:47:48;19.60;99.90
51914;DHT22;37940;53.002;6.930;2022-07-12T06:50:13;19.70;99.90
51914;DHT22;37940;53.002;6.930;2022-07-12T06:52:39;19.80;99.90
51914;DHT22;37940;53.002;6.930;2022-07-12T06:55:06;19.80;99.90
51914;DHT22;37940;53.002;6.930;2022-07-12T06:57:31;20.00;99.90
51914;DHT22;37940;53.002;6.930;2022-07-12T06:59:59;20.10;99.90
51914;DHT22;37940;53.002;6.930;2022-07-12T07:02:25;20.20;99.90
51914;DHT22;37940;53.002;6.930;2022-07-12T07:04:51;20.30;99.90
51914;DHT22;37940;53.002;6.930;2022-07-12T07:07:17;20.30;99.90
51914;DHT22;37940;53.002;6.930;2022-07-12T07:09:43;20.30;99.90
51914;DHT22;37940;53.002;6.930;2022-07-12T07:12:08;20.40;99.90
51914;DHT22;37940;53.002;6.930;2022-07-12T07:14:34;20.50;99.90
51914;DHT22;37940;53.002;6.930;2022-07-12T07:17:00;20.60;99.90
51914;DHT22;37940;53.002;6.930;2022-07-12T07:19:26;20.70;99.90
51914;DHT22;37940;53.002;6.930;2022-07-12T07:21:54;20.80;99.90
51914;DHT22;37940;53.002;6.930;2022-07-12T07:24:21;20.90;99.90
51914;DHT22;37940;53.002;6.930;2022-07-12T07:26:47;21.00;99.90
51914;DHT22;37940;53.002;6.930;2022-07-12T07:29:13;21.00;99.90
51914;DHT22;37940;53.002;6.930;2022-07-12T07:31:57;21.00;99.90
51914;DHT22;37940;53.002;6.930;2022-07-12T07:34:23;21.10;99.90
51914;DHT22;37940;53.002;6.930;2022-07-12T07:36:50;21.20;99.90
51914;DHT22;37940;53.002;6.930;2022-07-12T07:39:16;21.30;99.90
51914;DHT22;37940;53.002;6.930;2022-07-12T07:41:41;21.30;99.90
51914;DHT22;37940;53.002;6.930;2022-07-12T07:44:07;21.30;99.90
51914;DHT22;37940;53.002;6.930;2022-07-12T07:46:33;21.30;99.90
51914;DHT22;37940;53.002;6.930;2022-07-12T07:48:59;21.30;99.90
51914;DHT22;37940;53.002;6.930;2022-07-12T07:51:24;21.30;99.90
51914;DHT22;37940;53.002;6.930;2022-07-12T07:53:50;21.30;99.90
51914;DHT22;37940;53.002;6.930;2022-07-12T07:56:16;21.60;99.90
51914;DHT22;37940;53.002;6.930;2022-07-12T07:58:41;22.00;99.90
51914;DHT22;37940;53.002;6.930;2022-07-12T08:01:07;22.00;99.90
51914;DHT22;37940;53.002;6.930;2022-07-12T08:03:33;21.90;99.90
51914;DHT22;37940;53.002;6.930;2022-07-12T08:05:58;21.80;99.90
51914;DHT22;37940;53.002;6.930;2022-07-12T08:08:26;21.90;99.90
51914;DHT22;37940;53.002;6.930;2022-07-12T08:10:53;22.00;99.90
51914;DHT22;37940;53.002;6.930;2022-07-12T08:13:19;22.10;99.90
51914;DHT22;37940;53.002;6.930;2022-07-12T08:15:45;22.10;99.90
51914;DHT22;37940;53.002;6.930;2022-07-12T08:18:10;22.10;99.90
51914;DHT22;37940;53.002;6.930;2022-07-12T08:20:36;22.20;99.90
51914;DHT22;37940;53.002;6.930;2022-07-12T08:23:02;22.20;99.90
51914;DHT22;37940;53.002;6.930;2022-07-12T08:25:28;22.30;99.90
51914;DHT22;37940;53.002;6.930;2022-07-12T08:27:53;22.50;99.90
51914;DHT22;37940;53.002;6.930;2022-07-12T08:30:19;22.60;99.90
51914;DHT22;37940;53.002;6.930;2022-07-12T08:32:46;22.70;99.90
51914;DHT22;37940;53.002;6.930;2022-07-12T08:35:12;22.90;99.90
51914;DHT22;37940;53.002;6.930;2022-07-12T08:37:38;23.00;99.90
51914;DHT22;37940;53.002;6.930;2022-07-12T08:40:04;23.30;99.90
51914;DHT22;37940;53.002;6.930;2022-07-12T08:42:31;23.50;99.90
51914;DHT22;37940;53.002;6.930;2022-07-12T08:44:57;23.80;99.90
51914;DHT22;37940;53.002;6.930;2022-07-12T08:47:24;24.10;99.90
51914;DHT22;37940;53.002;6.930;2022-07-12T08:50:19;24.20;99.90
51914;DHT22;37940;53.002;6.930;2022-07-12T08:52:52;24.40;99.90
51914;DHT22;37940;53.002;6.930;2022-07-12T08:55:31;24.60;99.90
51914;DHT22;37940;53.002;6.930;2022-07-12T08:57:59;24.80;99.90
51914;DHT22;37940;53.002;6.930;2022-07-12T09:00:26;25.10;99.90
51914;DHT22;37940;53.002;6.930;2022-07-12T09:02:54;25.20;99.90
51914;DHT22;37940;53.002;6.930;2022-07-12T09:05:25;25.40;99.90
51914;DHT22;37940;53.002;6.930;2022-07-12T09:07:52;25.60;99.90
51914;DHT22;37940;53.002;6.930;2022-07-12T09:10:26;25.60;99.90
51914;DHT22;37940;53.002;6.930;2022-07-12T09:12:52;25.70;99.90
51914;DHT22;37940;53.002;6.930;2022-07-12T09:15:19;25.70;99.90
51914;DHT22;37940;53.002;6.930;2022-07-12T09:20:12;25.70;99.90
51914;DHT22;37940;53.002;6.930;2022-07-12T09:22:50;25.80;99.90
51914;DHT22;37940;53.002;6.930;2022-07-12T09:25:17;25.80;99.90
51914;DHT22;37940;53.002;6.930;2022-07-12T09:27:54;25.90;99.90
51914;DHT22;37940;53.002;6.930;2022-07-12T09:30:21;25.90;99.90
51914;DHT22;37940;53.002;6.930;2022-07-12T09:35:57;26.00;99.90
51914;DHT22;37940;53.002;6.930;2022-07-12T09:38:39;26.10;99.90
51914;DHT22;37940;53.002;6.930;2022-07-12T09:41:06;26.20;99.90
51914;DHT22;37940;53.002;6.930;2022-07-12T09:43:33;26.20;99.90
51914;DHT22;37940;53.002;6.930;2022-07-12T09:46:00;26.10;99.90
51914;DHT22;37940;53.002;6.930;2022-07-12T09:48:29;26.00;99.90
51914;DHT22;37940;53.002;6.930;2022-07-12T09:50:57;26.00;99.90
51914;DHT22;37940;53.002;6.930;2022-07-12T09:53:38;26.00;99.90
51914;DHT22;37940;53.002;6.930;2022-07-12T09:56:07;26.10;99.90
51914;DHT22;37940;53.002;6.930;2022-07-12T09:58:56;26.20;99.90
51914;DHT22;37940;53.002;6.930;2022-07-12T10:01:24;26.40;99.90
51914;DHT22;37940;53.002;6.930;2022-07-12T10:03:51;26.50;99.90
51914;DHT22;37940;53.002;6.930;2022-07-12T10:06:24;26.60;99.90
51914;DHT22;37940;53.002;6.930;2022-07-12T10:08:51;26.80;99.90
51914;DHT22;37940;53.002;6.930;2022-07-12T10:11:18;26.90;99.90
51914;DHT22;37940;53.002;6.930;2022-07-12T10:13:45;27.00;99.90
51914;DHT22;37940;53.002;6.930;2022-07-12T10:16:13;27.10;99.90
51914;DHT22;37940;53.002;6.930;2022-07-12T10:18:40;27.20;99.90
51914;DHT22;37940;53.002;6.930;2022-07-12T10:21:19;27.20;99.90
51914;DHT22;37940;53.002;6.930;2022-07-12T10:23:47;27.20;99.90
51914;DHT22;37940;53.002;6.930;2022-07-12T10:28:56;27.40;99.90
51914;DHT22;37940;53.002;6.930;2022-07-12T10:31:25;27.50;99.90
51914;DHT22;37940;53.002;6.930;2022-07-12T10:34:07;27.60;99.90
51914;DHT22;37940;53.002;6.930;2022-07-12T10:39:28;27.90;99.90
51914;DHT22;37940;53.002;6.930;2022-07-12T10:42:13;28.00;99.90
51914;DHT22;37940;53.002;6.930;2022-07-12T10:44:43;28.20;99.90
51914;DHT22;37940;53.002;6.930;2022-07-12T10:47:10;28.30;99.90
51914;DHT22;37940;53.002;6.930;2022-07-12T10:49:46;28.40;99.90
51914;DHT22;37940;53.002;6.930;2022-07-12T10:52:14;28.60;99.90
51914;DHT22;37940;53.002;6.930;2022-07-12T10:57:42;28.50;99.90
51914;DHT22;37940;53.002;6.930;2022-07-12T11:00:13;28.40;99.90
51914;DHT22;37940;53.002;6.930;2022-07-12T11:02:40;28.40;99.90
51914;DHT22;37940;53.002;6.930;2022-07-12T11:05:06;28.40;99.90
51914;DHT22;37940;53.002;6.930;2022-07-12T11:07:33;28.40;99.90
51914;DHT22;37940;53.002;6.930;2022-07-12T11:09:59;28.30;99.90
51914;DHT22;37940;53.002;6.930;2022-07-12T11:12:31;28.40;99.90
51914;DHT22;37940;53.002;6.930;2022-07-12T11:15:02;28.60;99.90
51914;DHT22;37940;53.002;6.930;2022-07-12T11:17:30;28.70;99.90
51914;DHT22;37940;53.002;6.930;2022-07-12T11:20:08;28.60;99.90
51914;DHT22;37940;53.002;6.930;2022-07-12T11:22:36;28.50;99.90
51914;DHT22;37940;53.002;6.930;2022-07-12T11:25:03;28.30;99.90
51914;DHT22;37940;53.002;6.930;2022-07-12T11:27:30;28.20;99.90
51914;DHT22;37940;53.002;6.930;2022-07-12T11:29:59;28.20;99.90
51914;DHT22;37940;53.002;6.930;2022-07-12T11:32:42;28.20;99.90
51914;DHT22;37940;53.002;6.930;2022-07-12T11:35:24;28.10;99.90
51914;DHT22;37940;53.002;6.930;2022-07-12T11:37:56;27.90;99.90
51914;DHT22;37940;53.002;6.930;2022-07-12T11:40:28;27.80;99.90
51914;DHT22;37940;53.002;6.930;2022-07-12T11:43:01;27.70;99.90
51914;DHT22;37940;53.002;6.930;2022-07-12T11:45:32;27.60;99.90
51914;DHT22;37940;53.002;6.930;2022-07-12T11:47:59;27.70;99.90
51914;DHT22;37940;53.002;6.930;2022-07-12T11:50:25;27.80;99.90
51914;DHT22;37940;53.002;6.930;2022-07-12T11:52:51;27.80;99.90
51914;DHT22;37940;53.002;6.930;2022-07-12T11:55:18;27.80;99.90
51914;DHT22;37940;53.002;6.930;2022-07-12T11:57:43;27.80;99.90
51914;DHT22;37940;53.002;6.930;2022-07-12T12:00:27;27.80;99.90
51914;DHT22;37940;53.002;6.930;2022-07-12T12:02:53;27.90;99.90
51914;DHT22;37940;53.002;6.930;2022-07-12T12:05:20;27.90;99.90
51914;DHT22;37940;53.002;6.930;2022-07-12T12:07:46;28.00;99.90
51914;DHT22;37940;53.002;6.930;2022-07-12T12:10:14;28.10;99.90
51914;DHT22;37940;53.002;6.930;2022-07-12T12:12:47;28.40;99.90
51914;DHT22;37940;53.002;6.930;2022-07-12T12:15:16;28.50;99.90
51914;DHT22;37940;53.002;6.930;2022-07-12T12:20:37;28.70;99.90
51914;DHT22;37940;53.002;6.930;2022-07-12T12:23:15;28.90;99.90
51914;DHT22;37940;53.002;6.930;2022-07-12T12:25:41;29.00;99.90
51914;DHT22;37940;53.002;6.930;2022-07-12T12:28:07;28.80;99.90
51914;DHT22;37940;53.002;6.930;2022-07-12T12:30:34;28.80;99.90
51914;DHT22;37940;53.002;6.930;2022-07-12T12:33:02;28.90;99.90
51914;DHT22;37940;53.002;6.930;2022-07-12T12:35:36;29.00;99.90
51914;DHT22;37940;53.002;6.930;2022-07-12T12:38:13;29.10;99.90
51914;DHT22;37940;53.002;6.930;2022-07-12T12:40:38;29.20;99.90
51914;DHT22;37940;53.002;6.930;2022-07-12T12:43:12;29.20;99.90
51914;DHT22;37940;53.002;6.930;2022-07-12T12:45:55;29.10;99.90
51914;DHT22;37940;53.002;6.930;2022-07-12T12:48:23;29.00;99.70
51914;DHT22;37940;53.002;6.930;2022-07-12T12:50:51;29.00;99.90
51914;DHT22;37940;53.002;6.930;2022-07-12T12:53:18;28.90;99.90
51914;DHT22;37940;53.002;6.930;2022-07-12T12:55:55;28.80;99.30
51914;DHT22;37940;53.002;6.930;2022-07-12T12:58:22;28.70;98.60
51914;DHT22;37940;53.002;6.930;2022-07-12T13:00:51;28.70;98.90
51914;DHT22;37940;53.002;6.930;2022-07-12T13:03:19;28.70;99.20
51914;DHT22;37940;53.002;6.930;2022-07-12T13:05:45;28.70;99.10
51914;DHT22;37940;53.002;6.930;2022-07-12T13:08:13;28.70;98.80
51914;DHT22;37940;53.002;6.930;2022-07-12T13:10:40;28.70;99.20
51914;DHT22;37940;53.002;6.930;2022-07-12T13:13:07;28.70;99.60
51914;DHT22;37940;53.002;6.930;2022-07-12T13:15:33;28.70;99.90
51914;DHT22;37940;53.002;6.930;2022-07-12T13:17:59;28.80;99.90
51914;DHT22;37940;53.002;6.930;2022-07-12T13:20:27;28.90;99.90
51914;DHT22;37940;53.002;6.930;2022-07-12T13:22:54;29.00;99.90
51914;DHT22;37940;53.002;6.930;2022-07-12T13:25:21;28.90;99.90
51914;DHT22;37940;53.002;6.930;2022-07-12T13:27:47;28.90;99.60
51914;DHT22;37940;53.002;6.930;2022-07-12T13:30:14;28.80;99.60
51914;DHT22;37940;53.002;6.930;2022-07-12T13:32:41;28.80;98.90
51914;DHT22;37940;53.002;6.930;2022-07-12T13:35:09;28.70;98.30
51914;DHT22;37940;53.002;6.930;2022-07-12T13:37:36;28.70;98.10
51914;DHT22;37940;53.002;6.930;2022-07-12T13:40:03;28.40;97.90
51914;DHT22;37940;53.002;6.930;2022-07-12T13:42:52;28.30;98.20
51914;DHT22;37940;53.002;6.930;2022-07-12T13:45:25;28.30;98.50
51914;DHT22;37940;53.002;6.930;2022-07-12T13:47:51;28.20;98.90
51914;DHT22;37940;53.002;6.930;2022-07-12T13:50:19;28.20;98.10
51914;DHT22;37940;53.002;6.930;2022-07-12T13:52:46;28.20;98.80
51914;DHT22;37940;53.002;6.930;2022-07-12T13:55:14;28.20;98.60
51914;DHT22;37940;53.002;6.930;2022-07-12T13:57:41;28.10;98.60
51914;DHT22;37940;53.002;6.930;2022-07-12T14:00:12;28.00;98.60
51914;DHT22;37940;53.002;6.930;2022-07-12T14:02:40;28.00;99.00
51914;DHT22;37940;53.002;6.930;2022-07-12T14:05:08;28.00;98.80
51914;DHT22;37940;53.002;6.930;2022-07-12T14:07:34;28.00;99.10
51914;DHT22;37940;53.002;6.930;2022-07-12T14:10:00;28.00;99.30
51914;DHT22;37940;53.002;6.930;2022-07-12T14:12:26;28.00;99.20
51914;DHT22;37940;53.002;6.930;2022-07-12T14:14:52;28.00;99.50
51914;DHT22;37940;53.002;6.930;2022-07-12T14:17:57;28.00;99.40
51914;DHT22;37940;53.002;6.930;2022-07-12T14:20:22;28.10;99.20
51914;DHT22;37940;53.002;6.930;2022-07-12T14:22:48;28.10;99.70
51914;DHT22;37940;53.002;6.930;2022-07-12T14:25:15;28.10;99.30
51914;DHT22;37940;53.002;6.930;2022-07-12T14:27:41;28.10;99.20
51914;DHT22;37940;53.002;6.930;2022-07-12T14:30:12;28.20;99.50
51914;DHT22;37940;53.002;6.930;2022-07-12T14:32:39;28.30;99.70
51914;DHT22;37940;53.002;6.930;2022-07-12T14:35:06;28.20;99.40
51914;DHT22;37940;53.002;6.930;2022-07-12T14:37:35;28.20;99.40
51914;DHT22;37940;53.002;6.930;2022-07-12T14:40:03;28.20;99.30
51914;DHT22;37940;53.002;6.930;2022-07-12T14:42:29;28.00;99.30
51914;DHT22;37940;53.002;6.930;2022-07-12T14:44:55;27.90;98.80
51914;DHT22;37940;53.002;6.930;2022-07-12T14:47:21;27.80;99.00
51914;DHT22;37940;53.002;6.930;2022-07-12T14:49:47;27.70;99.70
51914;DHT22;37940;53.002;6.930;2022-07-12T14:52:13;27.60;99.90
51914;DHT22;37940;53.002;6.930;2022-07-12T14:54:39;27.60;99.90
51914;DHT22;37940;53.002;6.930;2022-07-12T14:57:05;27.60;99.90
51914;DHT22;37940;53.002;6.930;2022-07-12T14:59:31;27.60;99.90
51914;DHT22;37940;53.002;6.930;2022-07-12T15:01:56;27.60;99.90
51914;DHT22;37940;53.002;6.930;2022-07-12T15:04:22;27.70;99.90
51914;DHT22;37940;53.002;6.930;2022-07-12T15:06:48;27.70;99.90
51914;DHT22;37940;53.002;6.930;2022-07-12T15:09:14;27.70;99.90
51914;DHT22;37940;53.002;6.930;2022-07-12T15:11:40;27.70;99.90
51914;DHT22;37940;53.002;6.930;2022-07-12T15:14:05;27.70;99.90
51914;DHT22;37940;53.002;6.930;2022-07-12T15:16:31;27.70;99.70
51914;DHT22;37940;53.002;6.930;2022-07-12T15:18:57;27.70;99.80
51914;DHT22;37940;53.002;6.930;2022-07-12T15:21:24;27.70;99.90
51914;DHT22;37940;53.002;6.930;2022-07-12T15:23:50;27.60;99.90
51914;DHT22;37940;53.002;6.930;2022-07-12T15:26:16;27.50;99.90
51914;DHT22;37940;53.002;6.930;2022-07-12T15:28:56;27.50;99.90
51914;DHT22;37940;53.002;6.930;2022-07-12T15:31:22;27.40;99.90
51914;DHT22;37940;53.002;6.930;2022-07-12T15:33:49;27.40;99.90
51914;DHT22;37940;53.002;6.930;2022-07-12T15:36:15;27.30;99.90
51914;DHT22;37940;53.002;6.930;2022-07-12T15:38:42;27.20;99.60
51914;DHT22;37940;53.002;6.930;2022-07-12T15:41:09;27.20;99.90
51914;DHT22;37940;53.002;6.930;2022-07-12T15:43:36;27.20;99.90
51914;DHT22;37940;53.002;6.930;2022-07-12T15:46:02;27.30;99.90
51914;DHT22;37940;53.002;6.930;2022-07-12T15:48:27;27.30;99.90
51914;DHT22;37940;53.002;6.930;2022-07-12T15:50:53;27.30;99.90
51914;DHT22;37940;53.002;6.930;2022-07-12T15:53:19;27.30;99.90